Time;durP1;ratioP1;P1;durP2;ratioP2;P2;SDS_P1;SDS_P2;PMS_P1;PMS_P2;Temp;Humidity;BMP_temperature;BMP_pressure;BME280_temperature;BME280_humidity;BME280_pressure;Samples;Min_cycle;Max_cycle;Signal;HPM_P1;HPM_P2
2021/09/15 00:02:00;;;;;;;11.63;6.70;;;;;;;;;;1882253;76;21052;-46
2021/09/15 00:04:29;;;;;;;8.45;6.55;;;;;;;;;;1882153;75;21094;-47
2021/09/15 00:06:58;;;;;;;7.28;6.58;;;;;;;;;;1882257;75;21106;-48
2021/09/15 00:09:26;;;;;;;7.92;6.80;;;;;;;;;;1882163;75;21090;-45
2021/09/15 00:11:55;;;;;;;10.08;6.28;;;;;;;;;;1882160;75;21033;-44
2021/09/15 00:14:24;;;;;;;10.78;6.62;;;;;;;;;;1882189;75;21040;-46
2021/09/15 00:16:53;;;;;;;7.08;6.37;;;;;;;;;;1882237;75;21060;-48
2021/09/15 00:19:22;;;;;;;7.35;6.12;;;;;;;;;;1882173;76;21048;-46
2021/09/15 00:21:51;;;;;;;7.70;6.90;;;;;;;;;;1882280;76;21044;-47
2021/09/15 00:24:19;;;;;;;7.65;6.90;;;;;;;;;;1882286;75;21021;-47
2021/09/15 00:26:49;;;;;;;10.35;7.08;;;;;;;;;;1878454;75;21060;-45
2021/09/15 00:29:17;;;;;;;7.00;6.22;;;;;;;;;;1872760;75;21103;-47
2021/09/15 00:31:46;;;;;;;11.70;7.00;;;;;;;;;;1872846;75;21106;-45
2021/09/15 00:34:15;;;;;;;8.13;6.40;;;;;;;;;;1872797;75;21029;-49
2021/09/15 00:36:43;;;;;;;9.63;6.90;;;;;;;;;;1872736;75;21041;-48
2021/09/15 00:39:12;;;;;;;8.05;6.40;;;;;;;;;;1872748;75;21076;-46
2021/09/15 00:41:41;;;;;;;7.42;6.55;;;;;;;;;;1872766;75;21048;-46
2021/09/15 00:44:10;;;;;;;9.80;7.12;;;;;;;;;;1872791;77;21033;-46
2021/09/15 00:46:41;;;;;;;9.48;6.37;;;;;;;;;;1872816;75;21124;-48
2021/09/15 00:49:10;;;;;;;8.85;6.30;;;;;;;;;;1872648;75;21053;-47
2021/09/15 00:51:40;;;;;;;10.00;6.60;;;;;;;;;;1872701;76;21115;-46
2021/09/15 00:54:09;;;;;;;7.08;6.08;;;;;;;;;;1872814;75;21530;-48
2021/09/15 00:56:40;;;;;;;7.87;6.05;;;;;;;;;;1872554;76;21085;-46
2021/09/15 00:59:10;;;;;;;7.30;6.00;;;;;;;;;;1872869;75;21021;-47
2021/09/15 01:01:39;;;;;;;7.25;5.80;;;;;;;;;;1872783;76;21095;-46
2021/09/15 01:04:10;;;;;;;8.40;5.95;;;;;;;;;;1872859;76;21044;-48
2021/09/15 01:06:41;;;;;;;6.67;6.00;;;;;;;;;;1872590;76;21143;-45
2021/09/15 01:09:10;;;;;;;8.65;6.08;;;;;;;;;;1872814;77;21045;-46
2021/09/15 01:11:40;;;;;;;12.53;7.05;;;;;;;;;;1872948;75;21098;-47
2021/09/15 01:14:14;;;;;;;10.35;6.30;;;;;;;;;;1872170;75;21097;-49
2021/09/15 01:16:56;;;;;;;8.10;6.78;;;;;;;;;;1841097;77;21090;-48
2021/09/15 01:19:27;;;;;;;7.75;6.03;;;;;;;;;;1869892;77;21040;-46
2021/09/15 01:21:58;;;;;;;7.85;5.83;;;;;;;;;;1870800;75;21096;-47
2021/09/15 01:24:33;;;;;;;12.43;6.30;;;;;;;;;;1871386;76;21052;-47
2021/09/15 01:27:13;;;;;;;6.40;5.80;;;;;;;;;;1874847;75;21152;-48
2021/09/15 01:29:49;;;;;;;7.47;6.75;;;;;;;;;;1876447;75;21106;-48
2021/09/15 01:32:29;;;;;;;7.53;6.00;;;;;;;;;;1882014;75;21077;-45
2021/09/15 01:34:58;;;;;;;10.43;6.35;;;;;;;;;;1882253;76;21044;-45
2021/09/15 01:37:28;;;;;;;9.20;6.05;;;;;;;;;;1882118;75;21076;-48
2021/09/15 01:39:58;;;;;;;9.33;6.50;;;;;;;;;;1881798;75;21085;-48
2021/09/15 01:42:27;;;;;;;7.00;5.67;;;;;;;;;;1882398;75;21127;-48
2021/09/15 01:44:57;;;;;;;10.85;6.47;;;;;;;;;;1882422;76;21045;-46
2021/09/15 01:47:26;;;;;;;7.67;6.35;;;;;;;;;;1882328;76;21040;-47
2021/09/15 01:49:56;;;;;;;6.90;6.05;;;;;;;;;;1882356;76;21044;-46
2021/09/15 01:52:25;;;;;;;9.55;6.00;;;;;;;;;;1882468;76;21568;-46
2021/09/15 01:54:55;;;;;;;10.38;6.37;;;;;;;;;;1882224;75;21114;-49
2021/09/15 01:57:24;;;;;;;15.25;6.75;;;;;;;;;;1882255;75;21111;-50
2021/09/15 02:00:11;;;;;;;19.12;6.30;;;;;;;;;;1882215;75;21098;-46
2021/09/15 02:02:42;;;;;;;10.08;6.40;;;;;;;;;;1882421;75;21444;-48
2021/09/15 02:05:19;;;;;;;7.80;6.05;;;;;;;;;;1876506;75;21072;-49
2021/09/15 02:08:08;;;;;;;7.47;6.17;;;;;;;;;;1880026;75;21068;-48
2021/09/15 02:10:38;;;;;;;9.23;7.03;;;;;;;;;;1878757;76;21143;-47
2021/09/15 02:13:07;;;;;;;12.33;6.60;;;;;;;;;;1882362;75;21094;-47
2021/09/15 02:15:37;;;;;;;15.30;7.70;;;;;;;;;;1882271;75;21025;-46
2021/09/15 02:18:05;;;;;;;16.25;7.50;;;;;;;;;;1882334;75;21028;-48
2021/09/15 02:20:39;;;;;;;11.90;7.03;;;;;;;;;;1879602;76;21142;-46
2021/09/15 02:23:13;;;;;;;12.30;6.37;;;;;;;;;;1881600;75;21150;-48
2021/09/15 02:25:46;;;;;;;10.48;6.15;;;;;;;;;;1873676;76;21040;-46
2021/09/15 02:28:16;;;;;;;6.78;5.80;;;;;;;;;;1875270;75;21072;-46
2021/09/15 02:30:50;;;;;;;6.72;6.12;;;;;;;;;;1871256;76;21069;-47
2021/09/15 02:33:20;;;;;;;7.35;6.28;;;;;;;;;;1871512;76;21080;-47
2021/09/15 02:35:50;;;;;;;6.85;6.15;;;;;;;;;;1870697;75;21073;-45
2021/09/15 02:38:34;;;;;;;;;;;;;;;;;;1862820;77;21036;-47
2021/09/15 02:41:20;;;;;;;6.72;5.90;;;;;;;;;;1871383;76;20403;-46
2021/09/15 02:43:50;;;;;;;8.50;5.90;;;;;;;;;;1872016;75;21051;-48
2021/09/15 02:46:20;;;;;;;10.68;6.00;;;;;;;;;;1871769;77;21088;-46
2021/09/15 02:49:08;;;;;;;11.68;7.10;;;;;;;;;;1872711;77;21155;-48
2021/09/15 02:51:38;;;;;;;9.05;6.87;;;;;;;;;;1871484;75;21072;-46
2021/09/15 02:54:08;;;;;;;11.88;6.87;;;;;;;;;;1872335;75;21164;-49
2021/09/15 02:56:41;;;;;;;8.80;6.58;;;;;;;;;;1871999;76;21171;-46
2021/09/15 02:59:30;;;;;;;7.37;6.15;;;;;;;;;;1871807;76;21084;-49
2021/09/15 03:02:17;;;;;;;6.87;6.12;;;;;;;;;;1872767;75;21120;-49
2021/09/15 03:04:53;;;;;;;7.30;6.30;;;;;;;;;;1870797;76;21096;-47
2021/09/15 03:07:33;;;;;;;9.85;6.60;;;;;;;;;;1871204;75;21080;-48
2021/09/15 03:10:04;;;;;;;9.20;6.80;;;;;;;;;;1872835;75;21041;-48
2021/09/15 03:12:33;;;;;;;10.82;6.83;;;;;;;;;;1872847;75;21025;-48
2021/09/15 03:15:02;;;;;;;10.80;7.10;;;;;;;;;;1872716;76;21045;-48
2021/09/15 03:17:31;;;;;;;7.05;6.35;;;;;;;;;;1872843;76;21013;-47
2021/09/15 03:20:00;;;;;;;12.95;7.45;;;;;;;;;;1872759;75;21270;-49
2021/09/15 03:22:29;;;;;;;9.43;7.17;;;;;;;;;;1872724;76;21017;-49
2021/09/15 03:24:58;;;;;;;11.83;7.17;;;;;;;;;;1872907;75;21057;-48
2021/09/15 03:27:27;;;;;;;7.90;6.80;;;;;;;;;;1873705;75;21008;-46
2021/09/15 03:29:57;;;;;;;7.87;7.05;;;;;;;;;;1882350;75;21044;-47
2021/09/15 03:32:26;;;;;;;9.98;7.83;;;;;;;;;;1882166;75;21044;-47
2021/09/15 03:34:54;;;;;;;9.48;7.22;;;;;;;;;;1882126;75;21048;-46
2021/09/15 03:37:23;;;;;;;9.35;7.15;;;;;;;;;;1882193;75;21064;-48
2021/09/15 03:39:52;;;;;;;7.97;7.17;;;;;;;;;;1882404;75;21029;-50
2021/09/15 03:42:21;;;;;;;11.08;7.53;;;;;;;;;;1882216;75;21040;-48
2021/09/15 03:44:51;;;;;;;10.80;7.33;;;;;;;;;;1882296;75;21107;-48
2021/09/15 03:47:19;;;;;;;7.75;6.95;;;;;;;;;;1882197;75;21004;-47
2021/09/15 03:49:48;;;;;;;9.15;7.72;;;;;;;;;;1882190;76;21045;-49
2021/09/15 03:52:17;;;;;;;10.98;7.80;;;;;;;;;;1882261;75;21037;-47
2021/09/15 03:54:46;;;;;;;14.05;8.18;;;;;;;;;;1882189;75;21044;-46
2021/09/15 03:57:16;;;;;;;9.83;8.58;;;;;;;;;;1882327;75;21064;-45
2021/09/15 03:59:45;;;;;;;13.30;8.15;;;;;;;;;;1882174;75;21025;-47
2021/09/15 04:02:14;;;;;;;12.25;8.38;;;;;;;;;;1882173;76;21097;-49
2021/09/15 04:04:42;;;;;;;8.58;7.62;;;;;;;;;;1882181;75;21040;-48
2021/09/15 04:07:11;;;;;;;8.55;7.65;;;;;;;;;;1882080;76;21032;-48
2021/09/15 04:09:40;;;;;;;15.88;8.85;;;;;;;;;;1882226;75;21020;-46
2021/09/15 04:12:10;;;;;;;8.78;7.53;;;;;;;;;;1882090;75;21036;-46
2021/09/15 04:14:39;;;;;;;17.75;9.00;;;;;;;;;;1882288;75;21037;-47
2021/09/15 04:17:07;;;;;;;16.00;9.40;;;;;;;;;;1882157;75;21040;-47
2021/09/15 04:19:37;;;;;;;12.63;9.93;;;;;;;;;;1882146;75;21110;-48
2021/09/15 04:22:07;;;;;;;15.38;8.28;;;;;;;;;;1882176;75;21110;-45
2021/09/15 04:32:50;;;;;;;11.88;8.10;;;;;;;;;;1872787;76;21110;-49
2021/09/15 04:35:19;;;;;;;13.43;8.70;;;;;;;;;;1872745;75;21106;-47
2021/09/15 04:37:47;;;;;;;10.80;8.20;;;;;;;;;;1872839;75;21033;-47
2021/09/15 04:40:16;;;;;;;14.87;8.98;;;;;;;;;;1872777;75;21126;-45
2021/09/15 04:42:45;;;;;;;17.45;8.40;;;;;;;;;;1872857;76;21032;-46
2021/09/15 04:45:15;;;;;;;14.70;9.13;;;;;;;;;;1872781;76;21568;-48
2021/09/15 04:47:44;;;;;;;12.82;7.40;;;;;;;;;;1872662;75;21150;-47
2021/09/15 04:50:13;;;;;;;13.48;7.75;;;;;;;;;;1872899;75;21092;-47
2021/09/15 04:52:42;;;;;;;17.82;9.50;;;;;;;;;;1872783;77;21024;-49
2021/09/15 04:55:11;;;;;;;13.85;8.25;;;;;;;;;;1872777;76;21131;-45
2021/09/15 04:57:40;;;;;;;16.50;8.88;;;;;;;;;;1872796;76;21025;-49
2021/09/15 05:00:09;;;;;;;18.42;9.28;;;;;;;;;;1872730;76;21116;-47
2021/09/15 05:02:40;;;;;;;12.05;7.97;;;;;;;;;;1872591;76;21069;-45
2021/09/15 05:05:10;;;;;;;19.32;8.43;;;;;;;;;;1871512;75;21050;-46
2021/09/15 05:07:40;;;;;;;9.68;7.35;;;;;;;;;;1872204;76;21056;-49
2021/09/15 05:10:09;;;;;;;14.13;7.62;;;;;;;;;;1872869;76;21021;-45
2021/09/15 05:12:38;;;;;;;23.38;7.47;;;;;;;;;;1872689;75;21013;-47
2021/09/15 05:15:08;;;;;;;12.40;8.10;;;;;;;;;;1872762;75;21048;-46
2021/09/15 05:17:37;;;;;;;12.58;8.13;;;;;;;;;;1872818;76;21001;-45
2021/09/15 05:20:06;;;;;;;17.42;8.68;;;;;;;;;;1872798;75;21041;-45
2021/09/15 05:22:36;;;;;;;9.05;7.05;;;;;;;;;;1872674;75;21103;-46
2021/09/15 05:25:05;;;;;;;11.93;7.30;;;;;;;;;;1872821;75;21032;-46
2021/09/15 05:27:34;;;;;;;13.68;7.75;;;;;;;;;;1872755;77;21091;-46
2021/09/15 05:30:03;;;;;;;12.53;7.15;;;;;;;;;;1880065;75;21064;-45
2021/09/15 05:32:33;;;;;;;12.40;8.10;;;;;;;;;;1882336;76;21051;-44
2021/09/15 05:35:02;;;;;;;14.68;8.13;;;;;;;;;;1882242;76;21114;-45
2021/09/15 05:37:31;;;;;;;9.88;7.90;;;;;;;;;;1882229;76;21036;-49
2021/09/15 05:40:02;;;;;;;9.75;7.83;;;;;;;;;;1882282;75;21033;-46
2021/09/15 05:42:31;;;;;;;15.55;8.90;;;;;;;;;;1882316;76;21044;-45
2021/09/15 05:45:02;;;;;;;11.83;8.95;;;;;;;;;;1882324;76;21036;-45
2021/09/15 05:47:30;;;;;;;13.22;9.50;;;;;;;;;;1882132;75;21510;-46
2021/09/15 05:50:00;;;;;;;61.63;43.02;;;;;;;;;;1882203;76;21016;-45
2021/09/15 05:52:30;;;;;;;16.67;9.78;;;;;;;;;;1859879;75;21063;-46
2021/09/15 05:54:59;;;;;;;17.98;11.15;;;;;;;;;;1882262;75;21032;-46
2021/09/15 05:57:28;;;;;;;19.85;11.40;;;;;;;;;;1882207;75;21112;-49
2021/09/15 05:59:56;;;;;;;15.18;9.00;;;;;;;;;;1882216;75;21040;-46
2021/09/15 06:02:25;;;;;;;12.35;7.37;;;;;;;;;;1882123;75;21032;-45
2021/09/15 06:04:54;;;;;;;9.98;7.55;;;;;;;;;;1882110;75;21071;-45
2021/09/15 06:07:28;;;;;;;16.60;7.87;;;;;;;;;;1881439;75;21071;-47
2021/09/15 06:09:56;;;;;;;8.80;6.78;;;;;;;;;;1882325;75;21103;-45
2021/09/15 06:12:25;;;;;;;15.45;8.73;;;;;;;;;;1882322;75;21048;-46
2021/09/15 06:14:55;;;;;;;11.75;6.03;;;;;;;;;;1882303;75;21083;-45
2021/09/15 06:17:24;;;;;;;9.23;4.72;;;;;;;;;;1882174;75;21044;-48
2021/09/15 06:19:53;;;;;;;7.72;5.17;;;;;;;;;;1882389;75;21106;-48
2021/09/15 06:22:26;;;;;;;9.83;6.00;;;;;;;;;;1873753;75;21080;-45
2021/09/15 06:25:09;;;;;;;7.15;4.80;;;;;;;;;;1880116;76;21146;-46
2021/09/15 06:27:41;;;;;;;7.90;6.03;;;;;;;;;;1882218;75;21103;-46
2021/09/15 06:30:11;;;;;;;8.55;5.40;;;;;;;;;;1876354;75;21060;-48
2021/09/15 06:32:41;;;;;;;10.32;5.80;;;;;;;;;;1872792;75;21029;-47
2021/09/15 06:35:13;;;;;;;7.33;5.70;;;;;;;;;;1872889;75;21107;-46
2021/09/15 06:37:42;;;;;;;10.80;6.20;;;;;;;;;;1872842;75;21122;-47
2021/09/15 06:40:11;;;;;;;12.23;6.22;;;;;;;;;;1872694;75;21080;-46
2021/09/15 06:42:40;;;;;;;9.35;5.45;;;;;;;;;;1872672;75;21102;-48
2021/09/15 06:45:09;;;;;;;9.03;6.20;;;;;;;;;;1872631;75;21103;-47
2021/09/15 06:47:42;;;;;;;9.48;6.28;;;;;;;;;;1872593;75;21107;-46
2021/09/15 06:50:11;;;;;;;10.45;5.85;;;;;;;;;;1872768;75;21004;-46
2021/09/15 06:52:40;;;;;;;12.30;6.35;;;;;;;;;;1872662;75;21460;-48
2021/09/15 06:55:09;;;;;;;8.70;6.08;;;;;;;;;;1872707;75;21107;-46
2021/09/15 06:57:38;;;;;;;12.00;7.53;;;;;;;;;;1872680;75;21104;-46
2021/09/15 07:00:08;;;;;;;7.72;4.92;;;;;;;;;;1872718;75;21041;-48
2021/09/15 07:02:37;;;;;;;5.75;4.37;;;;;;;;;;1872688;77;21106;-46
2021/09/15 07:05:06;;;;;;;11.25;6.22;;;;;;;;;;1872618;75;21099;-47
2021/09/15 07:07:35;;;;;;;11.30;5.30;;;;;;;;;;1872624;76;21044;-48
2021/09/15 07:10:05;;;;;;;8.40;5.20;;;;;;;;;;1872831;75;21072;-48
2021/09/15 07:12:35;;;;;;;14.03;6.45;;;;;;;;;;1872682;75;21537;-49
2021/09/15 07:15:04;;;;;;;9.18;5.67;;;;;;;;;;1872821;75;21126;-46
2021/09/15 07:17:33;;;;;;;9.53;5.20;;;;;;;;;;1872711;75;21091;-49
2021/09/15 07:20:02;;;;;;;14.28;5.42;;;;;;;;;;1872922;76;21044;-46
2021/09/15 07:22:31;;;;;;;8.63;5.20;;;;;;;;;;1872776;75;21017;-45
2021/09/15 07:25:00;;;;;;;10.65;4.40;;;;;;;;;;1872920;77;21045;-48
2021/09/15 07:27:29;;;;;;;5.08;4.42;;;;;;;;;;1872672;75;21040;-48
2021/09/15 07:29:58;;;;;;;6.80;4.80;;;;;;;;;;1876128;75;21072;-45
2021/09/15 07:32:27;;;;;;;8.48;4.33;;;;;;;;;;1882117;75;21028;-48
2021/09/15 07:34:56;;;;;;;13.88;4.78;;;;;;;;;;1882182;76;21044;-48
2021/09/15 07:37:25;;;;;;;11.25;5.17;;;;;;;;;;1882207;75;21200;-47
2021/09/15 07:39:54;;;;;;;8.13;5.40;;;;;;;;;;1882242;75;21094;-47
2021/09/15 07:42:22;;;;;;;12.43;4.70;;;;;;;;;;1882085;76;21052;-48
2021/09/15 07:44:52;;;;;;;6.28;4.65;;;;;;;;;;1882100;75;21048;-45
2021/09/15 07:47:20;;;;;;;9.80;4.80;;;;;;;;;;1882001;76;21017;-45
2021/09/15 07:49:50;;;;;;;6.35;4.47;;;;;;;;;;1882188;75;21095;-47
2021/09/15 07:52:18;;;;;;;6.78;5.78;;;;;;;;;;1880797;75;21095;-48
2021/09/15 07:54:47;;;;;;;7.20;5.03;;;;;;;;;;1881585;75;21040;-48
2021/09/15 07:57:17;;;;;;;9.13;5.70;;;;;;;;;;1881602;75;21044;-49
2021/09/15 07:59:45;;;;;;;6.42;4.85;;;;;;;;;;1881410;75;21106;-50
2021/09/15 08:02:14;;;;;;;9.50;4.72;;;;;;;;;;1881576;75;21090;-47
2021/09/15 08:04:43;;;;;;;9.30;4.80;;;;;;;;;;1881690;75;21099;-51
2021/09/15 08:07:12;;;;;;;7.62;4.37;;;;;;;;;;1881375;75;21110;-45
2021/09/15 08:09:40;;;;;;;7.25;4.05;;;;;;;;;;1881552;75;21063;-50
2021/09/15 08:12:09;;;;;;;13.58;4.35;;;;;;;;;;1881577;76;21102;-47
2021/09/15 08:14:38;;;;;;;9.58;5.10;;;;;;;;;;1881534;76;21049;-48
2021/09/15 08:17:07;;;;;;;6.20;4.62;;;;;;;;;;1881660;76;21102;-48
2021/09/15 08:19:36;;;;;;;5.25;4.15;;;;;;;;;;1881614;75;21056;-49
2021/09/15 08:22:05;;;;;;;9.65;4.87;;;;;;;;;;1881435;75;21123;-48
2021/09/15 08:24:34;;;;;;;10.48;4.17;;;;;;;;;;1881566;75;21033;-49
2021/09/15 08:27:03;;;;;;;7.97;4.50;;;;;;;;;;1881442;75;21096;-48
2021/09/15 08:29:32;;;;;;;7.40;4.55;;;;;;;;;;1891114;75;21101;-48
2021/09/15 08:32:01;;;;;;;8.53;6.37;;;;;;;;;;1912197;75;21062;-50
2021/09/15 08:34:30;;;;;;;7.03;4.20;;;;;;;;;;1911330;75;21030;-47
2021/09/15 08:36:59;;;;;;;6.00;4.40;;;;;;;;;;1912023;75;21047;-50
2021/09/15 08:39:28;;;;;;;9.43;5.17;;;;;;;;;;1912313;75;21058;-50
2021/09/15 08:41:56;;;;;;;9.03;4.75;;;;;;;;;;1911353;75;21564;-47
2021/09/15 08:44:25;;;;;;;8.60;4.37;;;;;;;;;;1911420;75;21110;-50
2021/09/15 08:46:55;;;;;;;6.65;4.20;;;;;;;;;;1912064;75;21133;-48
2021/09/15 08:49:24;;;;;;;6.62;4.85;;;;;;;;;;1912041;75;21152;-47
2021/09/15 08:51:53;;;;;;;19.30;12.80;;;;;;;;;;1912125;75;21148;-48
2021/09/15 08:54:22;;;;;;;7.87;4.95;;;;;;;;;;1912110;75;21032;-51
2021/09/15 08:56:51;;;;;;;8.13;5.08;;;;;;;;;;1912415;75;21022;-48
2021/09/15 08:59:19;;;;;;;7.60;5.35;;;;;;;;;;1913862;74;21115;-50
2021/09/15 09:01:49;;;;;;;6.28;4.87;;;;;;;;;;1913574;75;21030;-47
2021/09/15 09:04:18;;;;;;;5.35;4.78;;;;;;;;;;1913651;75;21476;-46
2021/09/15 09:06:47;;;;;;;6.85;4.20;;;;;;;;;;1913638;74;21104;-46
2021/09/15 09:09:16;;;;;;;7.87;4.53;;;;;;;;;;1913420;75;21147;-50
2021/09/15 09:11:47;;;;;;;7.78;4.25;;;;;;;;;;1913735;75;21073;-48
2021/09/15 09:14:15;;;;;;;7.33;4.90;;;;;;;;;;1913810;74;22112;-47
2021/09/15 09:16:45;;;;;;;7.87;5.20;;;;;;;;;;1913993;75;21088;-47
2021/09/15 09:19:16;;;;;;;6.17;4.60;;;;;;;;;;1913613;75;21148;-46
2021/09/15 09:21:49;;;;;;;7.92;5.08;;;;;;;;;;1913931;75;21085;-46
2021/09/15 09:24:25;;;;;;;5.05;4.37;;;;;;;;;;1913974;74;21624;-50
2021/09/15 09:27:00;;;;;;;7.87;4.92;;;;;;;;;;1913976;75;21506;-49
2021/09/15 09:29:35;;;;;;;8.95;5.60;;;;;;;;;;1913459;75;21039;-46
2021/09/15 09:32:05;;;;;;;8.00;4.80;;;;;;;;;;1913578;74;21105;-47
2021/09/15 09:34:44;;;;;;;12.33;5.47;;;;;;;;;;1914059;75;21050;-49
2021/09/15 09:37:17;;;;;;;8.73;5.10;;;;;;;;;;1914023;74;21006;-48
2021/09/15 09:39:45;;;;;;;11.65;4.37;;;;;;;;;;1913495;74;21480;-48
2021/09/15 09:42:27;;;;;;;14.13;4.87;;;;;;;;;;1914065;74;21006;-47
2021/09/15 09:45:08;;;;;;;6.35;4.92;;;;;;;;;;1913832;75;21138;-50
2021/09/15 09:47:37;;;;;;;6.10;5.08;;;;;;;;;;1913870;75;21006;-48
2021/09/15 09:50:10;;;;;;;12.13;5.20;;;;;;;;;;1913823;75;21151;-48
2021/09/15 09:52:54;;;;;;;12.47;5.35;;;;;;;;;;1904445;75;21058;-48
2021/09/15 09:55:23;;;;;;;6.05;4.40;;;;;;;;;;1914003;75;20998;-47
2021/09/15 09:57:53;;;;;;;5.10;4.20;;;;;;;;;;1914004;75;21085;-49
2021/09/15 10:00:22;;;;;;;7.30;4.62;;;;;;;;;;1914021;75;21135;-45
2021/09/15 10:02:51;;;;;;;7.75;4.85;;;;;;;;;;1914043;75;21081;-46
2021/09/15 10:05:21;;;;;;;7.67;5.20;;;;;;;;;;1913974;75;21030;-48
2021/09/15 10:07:49;;;;;;;9.68;4.30;;;;;;;;;;1913986;75;21559;-48
2021/09/15 10:10:19;;;;;;;7.30;4.80;;;;;;;;;;1913998;75;21092;-45
2021/09/15 10:12:54;;;;;;;6.58;5.15;;;;;;;;;;1913875;75;21460;-45
2021/09/15 10:15:21;;;;;;;7.15;4.80;;;;;;;;;;1913856;75;21002;-45
2021/09/15 10:17:54;;;;;;;4.67;3.65;;;;;;;;;;1914083;74;21142;-48
2021/09/15 10:20:27;;;;;;;11.38;4.90;;;;;;;;;;1913479;75;21117;-45
2021/09/15 10:22:56;;;;;;;5.70;4.33;;;;;;;;;;1913594;74;21206;-46
2021/09/15 10:25:38;;;;;;;7.03;5.00;;;;;;;;;;1913972;74;21077;-48
2021/09/15 10:28:07;;;;;;;6.33;4.28;;;;;;;;;;1913859;75;20998;-43
2021/09/15 10:30:44;;;;;;;6.83;4.80;;;;;;;;;;1914185;74;21026;-46
2021/09/15 10:33:31;;;;;;;6.12;4.55;;;;;;;;;;1923914;74;21050;-47
2021/09/15 10:35:59;;;;;;;16.10;4.83;;;;;;;;;;1923945;74;21002;-48
2021/09/15 10:38:38;;;;;;;6.22;4.62;;;;;;;;;;1923918;74;21073;-48
2021/09/15 10:41:17;;;;;;;11.88;5.03;;;;;;;;;;1891242;74;21009;-49
2021/09/15 10:43:46;;;;;;;9.28;5.17;;;;;;;;;;1910415;74;21071;-47
2021/09/15 10:46:22;;;;;;;6.87;4.70;;;;;;;;;;1923724;74;21076;-47
2021/09/15 10:48:52;;;;;;;7.22;4.72;;;;;;;;;;1923623;74;21593;-48
2021/09/15 10:51:21;;;;;;;6.40;4.62;;;;;;;;;;1898812;74;21022;-48
2021/09/15 10:53:50;;;;;;;9.03;5.00;;;;;;;;;;1923857;73;21081;-46
2021/09/15 10:56:37;;;;;;;10.98;4.95;;;;;;;;;;1923683;74;21006;-48
2021/09/15 10:59:06;;;;;;;10.60;4.53;;;;;;;;;;1924166;74;21331;-46
2021/09/15 11:01:39;;;;;;;5.42;4.37;;;;;;;;;;1924030;74;21177;-48
2021/09/15 11:04:08;;;;;;;7.00;4.22;;;;;;;;;;1923744;73;21013;-48
2021/09/15 11:06:37;;;;;;;6.60;4.35;;;;;;;;;;1920330;74;20982;-46
2021/09/15 11:09:07;;;;;;;8.93;3.70;;;;;;;;;;1923759;74;21081;-46
2021/09/15 11:11:37;;;;;;;10.28;5.55;;;;;;;;;;1922300;74;20993;-49
2021/09/15 11:14:07;;;;;;;13.98;6.22;;;;;;;;;;1923884;74;21029;-49
2021/09/15 11:16:37;;;;;;;7.70;4.60;;;;;;;;;;1922292;74;21069;-45
2021/09/15 11:19:19;;;;;;;4.60;4.20;;;;;;;;;;1922637;74;21554;-49
2021/09/15 11:21:53;;;;;;;5.53;4.20;;;;;;;;;;1922506;74;21562;-48
2021/09/15 11:24:23;;;;;;;4.53;3.80;;;;;;;;;;1923496;74;21032;-50
2021/09/15 11:26:53;;;;;;;7.47;4.20;;;;;;;;;;1923478;74;21323;-49
2021/09/15 11:29:42;;;;;;;7.55;4.70;;;;;;;;;;1923948;74;21060;-52
2021/09/15 11:32:12;;;;;;;4.97;4.10;;;;;;;;;;1924369;74;21507;-51
2021/09/15 11:34:42;;;;;;;5.28;3.40;;;;;;;;;;1924521;74;21014;-51
2021/09/15 11:37:24;;;;;;;7.60;4.45;;;;;;;;;;1924346;74;21194;-51
2021/09/15 11:40:00;;;;;;;9.58;4.67;;;;;;;;;;1924517;73;21033;-52
2021/09/15 11:42:30;;;;;;;10.13;4.85;;;;;;;;;;1923940;73;21017;-51
2021/09/15 11:45:13;;;;;;;5.55;4.33;;;;;;;;;;1924570;73;21194;-51
2021/09/15 11:47:46;;;;;;;7.28;4.53;;;;;;;;;;1924817;74;21010;-52
2021/09/15 11:50:16;;;;;;;6.12;4.97;;;;;;;;;;1924544;74;21018;-52
2021/09/15 11:52:47;;;;;;;8.58;4.70;;;;;;;;;;1924582;73;21005;-52
2021/09/15 11:55:17;;;;;;;8.10;4.83;;;;;;;;;;1924630;74;21081;-51
2021/09/15 11:57:49;;;;;;;9.25;5.17;;;;;;;;;;1924648;74;21066;-51
2021/09/15 12:00:18;;;;;;;13.25;4.83;;;;;;;;;;1924596;74;21079;-52
2021/09/15 12:02:47;;;;;;;8.13;5.12;;;;;;;;;;1924679;73;21001;-51
2021/09/15 12:05:16;;;;;;;5.92;4.70;;;;;;;;;;1924542;74;21073;-53
2021/09/15 12:07:45;;;;;;;8.75;4.45;;;;;;;;;;1924668;74;21069;-52
2021/09/15 12:10:14;;;;;;;5.97;4.55;;;;;;;;;;1924646;74;21068;-53
2021/09/15 12:12:43;;;;;;;4.67;4.10;;;;;;;;;;1924582;73;20993;-52
2021/09/15 12:15:12;;;;;;;11.38;5.50;;;;;;;;;;1924676;74;20993;-50
2021/09/15 12:17:40;;;;;;;8.40;4.53;;;;;;;;;;1924572;73;21018;-54
2021/09/15 12:20:10;;;;;;;8.60;4.17;;;;;;;;;;1924486;74;21021;-53
2021/09/15 12:22:40;;;;;;;9.93;4.35;;;;;;;;;;1924520;73;21029;-53
2021/09/15 12:25:10;;;;;;;14.00;4.95;;;;;;;;;;1924653;73;21167;-52
2021/09/15 12:27:41;;;;;;;9.48;5.00;;;;;;;;;;1924037;74;21013;-51
2021/09/15 12:30:11;;;;;;;9.10;4.78;;;;;;;;;;1924421;74;21482;-53
2021/09/15 12:32:40;;;;;;;9.45;4.08;;;;;;;;;;1926472;74;21049;-52
2021/09/15 12:35:10;;;;;;;5.55;4.20;;;;;;;;;;1928448;74;21088;-52
2021/09/15 12:37:40;;;;;;;6.47;4.15;;;;;;;;;;1923673;74;21037;-53
2021/09/15 12:40:10;;;;;;;9.40;4.75;;;;;;;;;;1928285;74;20990;-52
2021/09/15 12:42:39;;;;;;;14.78;5.28;;;;;;;;;;1927447;74;20986;-53
2021/09/15 12:45:11;;;;;;;10.25;4.58;;;;;;;;;;1928477;74;21084;-53
2021/09/15 12:47:41;;;;;;;8.95;4.40;;;;;;;;;;1928442;74;21079;-53
2021/09/15 12:50:20;;;;;;;8.10;5.08;;;;;;;;;;1928540;74;21022;-52
2021/09/15 12:52:50;;;;;;;9.00;4.45;;;;;;;;;;1928607;74;21021;-53
2021/09/15 12:55:20;;;;;;;17.87;8.90;;;;;;;;;;1926577;74;21092;-52
2021/09/15 12:57:58;;;;;;;14.18;6.95;;;;;;;;;;1928000;74;21045;-52
2021/09/15 13:00:30;;;;;;;20.50;11.03;;;;;;;;;;1928450;74;21037;-53
2021/09/15 13:02:59;;;;;;;17.95;10.32;;;;;;;;;;1928502;74;21067;-53
2021/09/15 13:05:28;;;;;;;11.38;7.75;;;;;;;;;;1928521;74;21083;-54
2021/09/15 13:07:57;;;;;;;7.20;4.75;;;;;;;;;;1928422;74;21385;-53
2021/09/15 13:10:26;;;;;;;11.25;7.33;;;;;;;;;;1928371;74;21072;-52
2021/09/15 13:12:55;;;;;;;7.83;4.25;;;;;;;;;;1928476;74;21021;-53
2021/09/15 13:15:24;;;;;;;10.85;5.12;;;;;;;;;;1928451;74;21116;-53
2021/09/15 13:17:54;;;;;;;9.00;4.15;;;;;;;;;;1928570;74;21095;-53
2021/09/15 13:20:22;;;;;;;9.93;4.08;;;;;;;;;;1928414;74;21017;-54
2021/09/15 13:22:51;;;;;;;5.45;4.40;;;;;;;;;;1928545;74;21001;-53
2021/09/15 13:25:20;;;;;;;7.17;3.98;;;;;;;;;;1928582;74;21006;-54
2021/09/15 13:27:49;;;;;;;5.55;3.80;;;;;;;;;;1928588;74;21002;-54
2021/09/15 13:30:18;;;;;;;6.00;3.87;;;;;;;;;;1928437;74;21083;-53
2021/09/15 13:32:48;;;;;;;8.40;4.80;;;;;;;;;;1928391;74;21492;-54
2021/09/15 13:35:17;;;;;;;7.12;4.37;;;;;;;;;;1928548;74;21095;-54
2021/09/15 13:37:46;;;;;;;4.03;3.67;;;;;;;;;;1928546;74;21029;-52
2021/09/15 13:40:14;;;;;;;7.53;3.72;;;;;;;;;;1928587;74;21013;-53
2021/09/15 13:42:43;;;;;;;7.78;4.20;;;;;;;;;;1928489;74;21009;-53
2021/09/15 13:45:13;;;;;;;5.78;3.67;;;;;;;;;;1928548;74;21083;-53
2021/09/15 13:47:45;;;;;;;6.50;4.00;;;;;;;;;;1928603;74;21036;-54
2021/09/15 13:50:19;;;;;;;7.80;5.28;;;;;;;;;;1928451;74;21079;-53
2021/09/15 13:52:48;;;;;;;6.92;3.98;;;;;;;;;;1928572;74;21456;-54
2021/09/15 13:55:18;;;;;;;6.25;5.17;;;;;;;;;;1928525;74;21006;-53
2021/09/15 13:57:48;;;;;;;9.30;4.37;;;;;;;;;;1928437;74;21009;-54
2021/09/15 14:00:17;;;;;;;8.30;5.37;;;;;;;;;;1928438;74;21017;-54
2021/09/15 14:02:46;;;;;;;17.95;6.55;;;;;;;;;;1928565;74;21053;-53
2021/09/15 14:05:15;;;;;;;9.45;4.55;;;;;;;;;;1928478;74;21017;-52
2021/09/15 14:07:48;;;;;;;8.63;4.58;;;;;;;;;;1928451;74;21068;-53
2021/09/15 14:10:14;;;;;;;7.65;4.35;;;;;;;;;;1928356;74;21476;-53
2021/09/15 14:12:43;;;;;;;6.03;4.30;;;;;;;;;;1928470;74;21060;-53
2021/09/15 14:15:12;;;;;;;18.40;4.90;;;;;;;;;;1928475;74;20985;-53
2021/09/15 14:17:42;;;;;;;7.05;4.53;;;;;;;;;;1928505;74;21013;-54
2021/09/15 14:20:11;;;;;;;8.68;5.00;;;;;;;;;;1928678;74;21033;-54
2021/09/15 14:22:41;;;;;;;13.25;6.92;;;;;;;;;;1928771;74;21025;-54
2021/09/15 14:25:10;;;;;;;19.87;8.78;;;;;;;;;;1928794;74;21083;-53
2021/09/15 14:27:38;;;;;;;15.45;8.88;;;;;;;;;;1928644;74;21018;-53
2021/09/15 14:30:07;;;;;;;16.12;8.60;;;;;;;;;;1928724;74;21025;-54
2021/09/15 14:32:36;;;;;;;11.35;6.30;;;;;;;;;;1928686;74;21032;-53
2021/09/15 14:35:05;;;;;;;13.53;8.13;;;;;;;;;;1928793;74;21479;-53
2021/09/15 14:37:34;;;;;;;14.40;7.83;;;;;;;;;;1928902;74;21069;-52
2021/09/15 14:40:04;;;;;;;11.40;6.17;;;;;;;;;;1928661;74;21005;-53
2021/09/15 14:42:32;;;;;;;10.53;6.92;;;;;;;;;;1928721;74;21025;-53
2021/09/15 14:45:01;;;;;;;13.25;8.98;;;;;;;;;;1928708;74;21025;-52
2021/09/15 14:47:30;;;;;;;10.78;8.33;;;;;;;;;;1928743;74;21091;-53
2021/09/15 14:49:59;;;;;;;13.65;9.38;;;;;;;;;;1928587;74;21103;-53
2021/09/15 14:52:28;;;;;;;15.15;9.85;;;;;;;;;;1928541;74;21069;-53
2021/09/15 14:54:56;;;;;;;14.15;10.08;;;;;;;;;;1928646;74;21133;-53
2021/09/15 14:57:26;;;;;;;14.18;9.25;;;;;;;;;;1928553;74;21009;-53
2021/09/15 14:59:55;;;;;;;13.88;9.03;;;;;;;;;;1928527;74;21021;-53
2021/09/15 15:02:23;;;;;;;15.45;9.23;;;;;;;;;;1928631;74;21022;-53
2021/09/15 15:04:52;;;;;;;17.17;9.00;;;;;;;;;;1928589;74;20993;-53
2021/09/15 15:07:21;;;;;;;12.90;9.13;;;;;;;;;;1928643;74;21091;-52